THY9314 LEBL-LOWW
Flight info
| Callsign | THY9314 |
|---|---|
| Flight time | N/A |
| Altitude | 35000 |
| Route | DALIN N870 DIBER DCT STP Y15 PIGOS DCT NOSTA DCT EGHIN DCT MISPO DCT VADIK DCT VEKEN DCT ABTAN |
| Aircraft | A333/H-V/N |
Departure
| Time | N/A |
|---|---|
| Airport | Josep Tarradellas Barcelona-El Prat Airport (LEBL) |
Arrival
| Time | 2026-04-20 14:10 |
|---|---|
| Airport | Vienna International Airport (LOWW) |
| Time | Latitude | Longitude | Altitude | Speed | Heading |
|---|---|---|---|---|---|
| 2026-04-20 11:46 | 41.30233 | 2.08038 | 0 ft | 0 kts | 4° |
| 2026-04-20 11:53 | 41.30237 | 2.08040 | 0 ft | 2 kts | 22° |
| 2026-04-20 11:53 | 41.30249 | 2.08066 | 0 ft | 7 kts | 72° |
| 2026-04-20 11:53 | 41.30273 | 2.08180 | 0 ft | 18 kts | 74° |
| 2026-04-20 11:54 | 41.30312 | 2.08363 | 0 ft | 22 kts | 74° |
| 2026-04-20 11:54 | 41.30356 | 2.08567 | 0 ft | 24 kts | 74° |
| 2026-04-20 11:54 | 41.30410 | 2.08786 | 0 ft | 26 kts | 69° |
| 2026-04-20 11:54 | 41.30458 | 2.09021 | 0 ft | 27 kts | 79° |
| 2026-04-20 11:55 | 41.30505 | 2.09222 | 0 ft | 21 kts | 69° |
| 2026-04-20 11:55 | 41.30563 | 2.09412 | 0 ft | 24 kts | 68° |
| 2026-04-20 11:55 | 41.30629 | 2.09624 | 0 ft | 26 kts | 68° |
| 2026-04-20 11:55 | 41.30655 | 2.09851 | 0 ft | 25 kts | 76° |
| 2026-04-20 11:56 | 41.30717 | 2.10071 | 0 ft | 26 kts | 64° |
| 2026-04-20 11:56 | 41.30763 | 2.10249 | 0 ft | 9 kts | 105° |
| 2026-04-20 11:56 | 41.30717 | 2.10300 | 0 ft | 11 kts | 148° |
| 2026-04-20 11:56 | 41.30645 | 2.10357 | 0 ft | 11 kts | 161° |
| 2026-04-20 11:57 | 41.30582 | 2.10346 | 0 ft | 10 kts | 207° |
| 2026-04-20 11:57 | 41.30543 | 2.10272 | 0 ft | 12 kts | 249° |
| 2026-04-20 11:57 | 41.30421 | 2.09903 | 0 ft | 81 kts | 246° |
| 2026-04-20 11:57 | 41.30082 | 2.08922 | 0 ft | 146 kts | 245° |
| 2026-04-20 11:58 | 41.29619 | 2.07638 | 0 ft | 158 kts | 245° |
| 2026-04-20 11:58 | 41.29187 | 2.06313 | 0 ft | 154 kts | 248° |
| 2026-04-20 11:58 | 41.28780 | 2.04970 | 0 ft | 159 kts | 249° |
| 2026-04-20 11:58 | 41.28373 | 2.03605 | 0 ft | 163 kts | 249° |
| 2026-04-20 11:59 | 41.27924 | 2.02091 | 0 ft | 198 kts | 249° |
| 2026-04-20 11:59 | 41.27382 | 2.00251 | 0 ft | 228 kts | 249° |
| 2026-04-20 11:59 | 41.26769 | 1.98160 | 0 ft | 249 kts | 251° |
| 2026-04-20 11:59 | 41.26591 | 1.95947 | 0 ft | 243 kts | 282° |
| 2026-04-20 12:00 | 41.27358 | 1.93925 | 0 ft | 251 kts | 314° |
| 2026-04-20 12:00 | 41.28821 | 1.92733 | 0 ft | 250 kts | 345° |
| 2026-04-20 12:00 | 41.30566 | 1.92719 | 0 ft | 257 kts | 16° |
| 2026-04-20 12:00 | 41.32110 | 1.93892 | 0 ft | 261 kts | 46° |
| 2026-04-20 12:01 | 41.33052 | 1.96010 | 0 ft | 272 kts | 75° |
| 2026-04-20 12:01 | 41.33319 | 1.98459 | 0 ft | 271 kts | 86° |
| 2026-04-20 12:01 | 41.33445 | 2.00990 | 0 ft | 277 kts | 87° |
| 2026-04-20 12:01 | 41.33541 | 2.03519 | 0 ft | 286 kts | 88° |
| 2026-04-20 12:02 | 41.33630 | 2.06233 | 0 ft | 302 kts | 88° |
| 2026-04-20 12:02 | 41.33731 | 2.09090 | 0 ft | 316 kts | 86° |
| 2026-04-20 12:02 | 41.33950 | 2.12037 | 0 ft | 329 kts | 82° |
| 2026-04-20 12:02 | 41.34357 | 2.15092 | 0 ft | 341 kts | 78° |
| 2026-04-20 12:03 | 41.34923 | 2.18174 | 0 ft | 351 kts | 75° |
| 2026-04-20 12:03 | 41.35627 | 2.21327 | 0 ft | 360 kts | 72° |
| 2026-04-20 12:03 | 41.36425 | 2.24481 | 0 ft | 368 kts | 70° |
| 2026-04-20 12:03 | 41.37304 | 2.27671 | 0 ft | 375 kts | 69° |
| 2026-04-20 12:04 | 41.38259 | 2.30931 | 0 ft | 381 kts | 68° |
| 2026-04-20 12:04 | 41.39248 | 2.34165 | 0 ft | 386 kts | 67° |
| 2026-04-20 12:04 | 41.40293 | 2.37481 | 0 ft | 390 kts | 67° |
| 2026-04-20 12:04 | 41.41371 | 2.40824 | 0 ft | 394 kts | 66° |
| 2026-04-20 12:05 | 41.42472 | 2.44184 | 0 ft | 399 kts | 66° |
| 2026-04-20 12:05 | 41.43594 | 2.47567 | 0 ft | 407 kts | 66° |
| 2026-04-20 12:05 | 41.44766 | 2.51072 | 0 ft | 409 kts | 66° |
| 2026-04-20 12:05 | 41.45926 | 2.54517 | 0 ft | 406 kts | 65° |
| 2026-04-20 12:06 | 41.47078 | 2.57925 | 0 ft | 411 kts | 65° |
| 2026-04-20 12:06 | 41.48264 | 2.61424 | 0 ft | 415 kts | 65° |
| 2026-04-20 12:06 | 41.49452 | 2.64923 | 0 ft | 415 kts | 65° |
| 2026-04-20 12:06 | 41.50649 | 2.68445 | 0 ft | 419 kts | 65° |
| 2026-04-20 12:07 | 41.51863 | 2.72014 | 0 ft | 423 kts | 65° |
| 2026-04-20 12:07 | 41.53085 | 2.75606 | 0 ft | 427 kts | 65° |
| 2026-04-20 12:07 | 41.54314 | 2.79221 | 0 ft | 430 kts | 65° |
| 2026-04-20 12:07 | 41.55136 | 2.81640 | 0 ft | 431 kts | 65° |
| 2026-04-20 12:08 | 41.56378 | 2.85295 | 0 ft | 434 kts | 65° |
| 2026-04-20 12:08 | 41.57625 | 2.88972 | 0 ft | 436 kts | 65° |
| 2026-04-20 12:08 | 41.59296 | 2.93899 | 0 ft | 441 kts | 65° |
| 2026-04-20 12:08 | 41.60563 | 2.97644 | 0 ft | 445 kts | 65° |
| 2026-04-20 12:09 | 41.61429 | 3.00203 | 0 ft | 448 kts | 65° |
| 2026-04-20 12:09 | 41.62711 | 3.03997 | 0 ft | 451 kts | 65° |
| 2026-04-20 12:09 | 41.64004 | 3.07831 | 0 ft | 454 kts | 65° |
| 2026-04-20 12:09 | 41.65304 | 3.11690 | 0 ft | 455 kts | 65° |
| 2026-04-20 12:10 | 41.66584 | 3.15495 | 0 ft | 450 kts | 65° |
| 2026-04-20 12:10 | 41.67883 | 3.19363 | 0 ft | 451 kts | 65° |
| 2026-04-20 12:10 | 41.69170 | 3.23199 | 0 ft | 453 kts | 65° |
| 2026-04-20 12:10 | 41.70447 | 3.27011 | 0 ft | 456 kts | 66° |
| 2026-04-20 12:11 | 41.71748 | 3.30902 | 0 ft | 458 kts | 66° |
| 2026-04-20 12:11 | 41.73047 | 3.34791 | 0 ft | 460 kts | 66° |
| 2026-04-20 12:11 | 41.74356 | 3.38712 | 0 ft | 463 kts | 66° |
| 2026-04-20 12:11 | 41.75672 | 3.42662 | 0 ft | 467 kts | 66° |
| 2026-04-20 12:12 | 41.77004 | 3.46664 | 0 ft | 471 kts | 66° |
| 2026-04-20 12:12 | 41.78342 | 3.50690 | 0 ft | 474 kts | 66° |
| 2026-04-20 12:12 | 41.79684 | 3.54734 | 0 ft | 477 kts | 66° |
| 2026-04-20 12:12 | 41.81032 | 3.58805 | 0 ft | 478 kts | 66° |
| 2026-04-20 12:13 | 41.82382 | 3.62885 | 0 ft | 479 kts | 66° |
| 2026-04-20 12:13 | 41.83732 | 3.66973 | 0 ft | 479 kts | 66° |
| 2026-04-20 12:13 | 41.85082 | 3.71066 | 0 ft | 481 kts | 66° |
| 2026-04-20 12:13 | 41.86422 | 3.75136 | 0 ft | 483 kts | 66° |
| 2026-04-20 12:14 | 41.87780 | 3.79265 | 0 ft | 485 kts | 66° |
| 2026-04-20 12:14 | 41.89142 | 3.83415 | 0 ft | 486 kts | 66° |
| 2026-04-20 12:14 | 41.90502 | 3.87566 | 0 ft | 486 kts | 66° |
| 2026-04-20 12:14 | 41.91865 | 3.91731 | 0 ft | 487 kts | 66° |
| 2026-04-20 12:15 | 41.93225 | 3.95893 | 0 ft | 487 kts | 66° |
| 2026-04-20 12:15 | 41.94584 | 4.00061 | 0 ft | 487 kts | 66° |
| 2026-04-20 12:15 | 41.95938 | 4.04219 | 0 ft | 487 kts | 66° |
| 2026-04-20 12:15 | 41.97294 | 4.08390 | 0 ft | 487 kts | 66° |
| 2026-04-20 12:16 | 41.98650 | 4.12567 | 0 ft | 487 kts | 66° |
| 2026-04-20 12:16 | 41.99985 | 4.16686 | 0 ft | 487 kts | 66° |
| 2026-04-20 12:16 | 42.01336 | 4.20862 | 0 ft | 486 kts | 66° |
| 2026-04-20 12:16 | 42.02685 | 4.25038 | 0 ft | 486 kts | 66° |
| 2026-04-20 12:17 | 42.04027 | 4.29202 | 0 ft | 486 kts | 66° |
| 2026-04-20 12:17 | 42.05370 | 4.33374 | 0 ft | 486 kts | 66° |
| 2026-04-20 12:17 | 42.06688 | 4.37556 | 0 ft | 485 kts | 70° |
| 2026-04-20 12:17 | 42.07407 | 4.41974 | 0 ft | 485 kts | 86° |
| 2026-04-20 12:18 | 42.07360 | 4.46509 | 0 ft | 484 kts | 94° |
| 2026-04-20 12:18 | 42.07084 | 4.51040 | 0 ft | 484 kts | 96° |
| 2026-04-20 12:18 | 42.06739 | 4.55548 | 0 ft | 485 kts | 96° |
| 2026-04-20 12:18 | 42.06360 | 4.60053 | 0 ft | 484 kts | 97° |
| 2026-04-20 12:19 | 42.05961 | 4.64557 | 0 ft | 484 kts | 97° |
| 2026-04-20 12:19 | 42.05552 | 4.69068 | 0 ft | 484 kts | 97° |
| 2026-04-20 12:19 | 42.05138 | 4.73573 | 0 ft | 484 kts | 97° |
| 2026-04-20 12:19 | 42.04722 | 4.78069 | 0 ft | 484 kts | 97° |
| 2026-04-20 12:20 | 42.04311 | 4.82501 | 0 ft | 484 kts | 97° |
| 2026-04-20 12:20 | 42.03892 | 4.86997 | 0 ft | 484 kts | 97° |
| 2026-04-20 12:20 | 42.03473 | 4.91487 | 0 ft | 484 kts | 97° |
| 2026-04-20 12:20 | 42.03052 | 4.95994 | 0 ft | 486 kts | 97° |
| 2026-04-20 12:21 | 42.02628 | 5.00512 | 0 ft | 487 kts | 97° |
| 2026-04-20 12:21 | 42.02202 | 5.05035 | 0 ft | 488 kts | 97° |
| 2026-04-20 12:21 | 42.01775 | 5.09565 | 0 ft | 489 kts | 97° |
| 2026-04-20 12:21 | 42.01345 | 5.14115 | 0 ft | 490 kts | 97° |
| 2026-04-20 12:22 | 42.00913 | 5.18665 | 0 ft | 490 kts | 97° |
| 2026-04-20 12:22 | 42.00580 | 5.22163 | 0 ft | 491 kts | 97° |
| 2026-04-20 12:22 | 42.00171 | 5.26445 | 0 ft | 491 kts | 97° |
| 2026-04-20 12:22 | 41.99734 | 5.31001 | 0 ft | 491 kts | 97° |
| 2026-04-20 12:23 | 41.99296 | 5.35553 | 0 ft | 491 kts | 97° |
| 2026-04-20 12:23 | 41.98855 | 5.40115 | 0 ft | 491 kts | 97° |
| 2026-04-20 12:23 | 41.98415 | 5.44663 | 0 ft | 492 kts | 97° |
| 2026-04-20 12:23 | 41.97971 | 5.49223 | 0 ft | 492 kts | 97° |
| 2026-04-20 12:24 | 41.97532 | 5.53715 | 0 ft | 492 kts | 97° |
| 2026-04-20 12:24 | 41.97085 | 5.58273 | 0 ft | 492 kts | 97° |
| 2026-04-20 12:24 | 41.96637 | 5.62824 | 0 ft | 492 kts | 97° |
| 2026-04-20 12:24 | 41.96185 | 5.67399 | 0 ft | 492 kts | 97° |
| 2026-04-20 12:25 | 41.95735 | 5.71934 | 0 ft | 492 kts | 97° |
| 2026-04-20 12:25 | 41.95282 | 5.76479 | 0 ft | 492 kts | 97° |
| 2026-04-20 12:25 | 41.94825 | 5.81043 | 0 ft | 492 kts | 97° |
| 2026-04-20 12:25 | 41.94367 | 5.85599 | 0 ft | 492 kts | 97° |
| 2026-04-20 12:26 | 41.93908 | 5.90150 | 0 ft | 492 kts | 98° |
| 2026-04-20 12:26 | 41.93446 | 5.94717 | 0 ft | 492 kts | 98° |
| 2026-04-20 12:26 | 41.92983 | 5.99261 | 0 ft | 492 kts | 98° |
| 2026-04-20 12:26 | 41.92518 | 6.03819 | 0 ft | 492 kts | 98° |
| 2026-04-20 12:27 | 41.92058 | 6.08313 | 0 ft | 492 kts | 98° |
| 2026-04-20 12:27 | 41.91585 | 6.12909 | 0 ft | 492 kts | 98° |
| 2026-04-20 12:27 | 41.91120 | 6.17403 | 0 ft | 492 kts | 98° |
| 2026-04-20 12:27 | 41.90648 | 6.21955 | 0 ft | 492 kts | 98° |
| 2026-04-20 12:28 | 41.90175 | 6.26495 | 0 ft | 492 kts | 98° |
| 2026-04-20 12:28 | 41.89699 | 6.31050 | 0 ft | 492 kts | 98° |
| 2026-04-20 12:28 | 41.89222 | 6.35595 | 0 ft | 492 kts | 98° |
| 2026-04-20 12:28 | 41.88744 | 6.40136 | 0 ft | 492 kts | 98° |
| 2026-04-20 12:29 | 41.88262 | 6.44685 | 0 ft | 492 kts | 98° |
| 2026-04-20 12:29 | 41.87780 | 6.49229 | 0 ft | 492 kts | 98° |
| 2026-04-20 12:29 | 41.87295 | 6.53778 | 0 ft | 492 kts | 98° |
| 2026-04-20 12:29 | 41.86809 | 6.58319 | 0 ft | 492 kts | 98° |
| 2026-04-20 12:30 | 41.86321 | 6.62857 | 0 ft | 492 kts | 98° |
| 2026-04-20 12:30 | 41.85836 | 6.67354 | 0 ft | 492 kts | 98° |
| 2026-04-20 12:30 | 41.85345 | 6.71898 | 0 ft | 492 kts | 98° |
| 2026-04-20 12:30 | 41.84851 | 6.76443 | 0 ft | 492 kts | 98° |
| 2026-04-20 12:31 | 41.84356 | 6.80973 | 0 ft | 492 kts | 98° |
| 2026-04-20 12:31 | 41.83860 | 6.85505 | 0 ft | 492 kts | 98° |
| 2026-04-20 12:31 | 41.83360 | 6.90054 | 0 ft | 492 kts | 98° |
| 2026-04-20 12:31 | 41.82860 | 6.94585 | 0 ft | 492 kts | 98° |
| 2026-04-20 12:32 | 41.82359 | 6.99118 | 0 ft | 492 kts | 98° |
| 2026-04-20 12:32 | 41.81853 | 7.03671 | 0 ft | 492 kts | 98° |
| 2026-04-20 12:32 | 41.81347 | 7.08199 | 0 ft | 492 kts | 98° |
| 2026-04-20 12:32 | 41.80840 | 7.12733 | 0 ft | 492 kts | 98° |
| 2026-04-20 12:33 | 41.80336 | 7.17217 | 0 ft | 492 kts | 98° |
| 2026-04-20 12:33 | 41.79825 | 7.21747 | 0 ft | 492 kts | 98° |
| 2026-04-20 12:33 | 41.79312 | 7.26275 | 0 ft | 492 kts | 98° |
| 2026-04-20 12:33 | 41.78799 | 7.30797 | 0 ft | 492 kts | 98° |
| 2026-04-20 12:34 | 41.78280 | 7.35341 | 0 ft | 492 kts | 99° |
| 2026-04-20 12:34 | 41.77765 | 7.39848 | 0 ft | 492 kts | 98° |
| 2026-04-20 12:34 | 41.77244 | 7.44377 | 0 ft | 492 kts | 98° |
| 2026-04-20 12:34 | 41.76722 | 7.48909 | 0 ft | 492 kts | 99° |
| 2026-04-20 12:35 | 41.76198 | 7.53440 | 0 ft | 492 kts | 99° |
| 2026-04-20 12:35 | 41.75673 | 7.57959 | 0 ft | 492 kts | 99° |
| 2026-04-20 12:35 | 41.75145 | 7.62490 | 0 ft | 492 kts | 99° |
| 2026-04-20 12:35 | 41.74618 | 7.67001 | 0 ft | 492 kts | 99° |
| 2026-04-20 12:36 | 41.74091 | 7.71491 | 0 ft | 492 kts | 99° |
| 2026-04-20 12:36 | 41.73559 | 7.76009 | 0 ft | 492 kts | 99° |
| 2026-04-20 12:36 | 41.73024 | 7.80535 | 0 ft | 492 kts | 99° |
| 2026-04-20 12:36 | 41.72489 | 7.85046 | 0 ft | 492 kts | 99° |
| 2026-04-20 12:37 | 41.71952 | 7.89561 | 0 ft | 492 kts | 99° |
| 2026-04-20 12:37 | 41.71411 | 7.94089 | 0 ft | 492 kts | 99° |
| 2026-04-20 12:37 | 41.70870 | 7.98610 | 0 ft | 492 kts | 99° |
| 2026-04-20 12:37 | 41.70327 | 8.03126 | 0 ft | 492 kts | 99° |
| 2026-04-20 12:38 | 41.69781 | 8.07654 | 0 ft | 492 kts | 99° |
| 2026-04-20 12:38 | 41.69233 | 8.12179 | 0 ft | 492 kts | 99° |
| 2026-04-20 12:38 | 41.68685 | 8.16692 | 0 ft | 492 kts | 99° |
| 2026-04-20 12:38 | 41.68141 | 8.21153 | 0 ft | 492 kts | 99° |
| 2026-04-20 12:39 | 41.67034 | 8.30190 | 0 ft | 492 kts | 99° |
| 2026-04-20 12:39 | 41.66479 | 8.34699 | 0 ft | 492 kts | 99° |
| 2026-04-20 12:39 | 41.65920 | 8.39224 | 0 ft | 492 kts | 99° |
| 2026-04-20 12:40 | 41.65361 | 8.43731 | 0 ft | 492 kts | 99° |
| 2026-04-20 12:40 | 41.64800 | 8.48241 | 0 ft | 492 kts | 99° |
| 2026-04-20 12:40 | 41.64238 | 8.52751 | 0 ft | 492 kts | 99° |
| 2026-04-20 12:40 | 41.63671 | 8.57277 | 0 ft | 492 kts | 99° |
| 2026-04-20 12:41 | 41.63105 | 8.61784 | 0 ft | 492 kts | 99° |
| 2026-04-20 12:41 | 41.62538 | 8.66286 | 0 ft | 492 kts | 99° |
| 2026-04-20 12:41 | 41.61975 | 8.70733 | 0 ft | 492 kts | 99° |
| 2026-04-20 12:41 | 41.61402 | 8.75252 | 0 ft | 492 kts | 99° |
| 2026-04-20 12:42 | 41.60830 | 8.79747 | 0 ft | 492 kts | 99° |
| 2026-04-20 12:42 | 41.60253 | 8.84265 | 0 ft | 492 kts | 99° |
| 2026-04-20 12:42 | 41.59674 | 8.88784 | 0 ft | 492 kts | 99° |
| 2026-04-20 12:42 | 41.59097 | 8.93280 | 0 ft | 492 kts | 99° |
| 2026-04-20 12:43 | 41.58515 | 8.97790 | 0 ft | 492 kts | 99° |
| 2026-04-20 12:43 | 41.57935 | 9.02280 | 0 ft | 492 kts | 99° |
| 2026-04-20 12:43 | 41.57350 | 9.06793 | 0 ft | 492 kts | 100° |
| 2026-04-20 12:43 | 41.56765 | 9.11285 | 0 ft | 492 kts | 100° |
| 2026-04-20 12:44 | 41.56183 | 9.15740 | 0 ft | 492 kts | 100° |
| 2026-04-20 12:44 | 41.55595 | 9.20232 | 0 ft | 492 kts | 100° |
| 2026-04-20 12:44 | 41.55002 | 9.24741 | 0 ft | 492 kts | 100° |
| 2026-04-20 12:44 | 41.54408 | 9.29247 | 0 ft | 492 kts | 100° |
| 2026-04-20 12:45 | 41.53814 | 9.33737 | 0 ft | 492 kts | 100° |
| 2026-04-20 12:45 | 41.53217 | 9.38242 | 0 ft | 492 kts | 100° |
| 2026-04-20 12:45 | 41.52619 | 9.42737 | 0 ft | 492 kts | 100° |
| 2026-04-20 12:45 | 41.52020 | 9.47225 | 0 ft | 492 kts | 100° |
| 2026-04-20 12:46 | 41.51419 | 9.51717 | 0 ft | 492 kts | 100° |
| 2026-04-20 12:46 | 41.50823 | 9.56150 | 0 ft | 492 kts | 100° |
| 2026-04-20 12:46 | 41.50218 | 9.60643 | 0 ft | 492 kts | 100° |
| 2026-04-20 12:46 | 41.49612 | 9.65126 | 0 ft | 492 kts | 100° |
| 2026-04-20 12:47 | 41.49004 | 9.69612 | 0 ft | 492 kts | 100° |
| 2026-04-20 12:47 | 41.48392 | 9.74120 | 0 ft | 492 kts | 100° |
| 2026-04-20 12:47 | 41.47780 | 9.78604 | 0 ft | 492 kts | 100° |
| 2026-04-20 12:47 | 41.47168 | 9.83082 | 0 ft | 492 kts | 100° |
| 2026-04-20 12:48 | 41.46551 | 9.87573 | 0 ft | 492 kts | 100° |
| 2026-04-20 12:48 | 41.45935 | 9.92049 | 0 ft | 492 kts | 100° |
| 2026-04-20 12:48 | 41.45316 | 9.96537 | 0 ft | 492 kts | 100° |
| 2026-04-20 12:48 | 41.44694 | 10.01026 | 0 ft | 492 kts | 100° |
| 2026-04-20 12:49 | 41.44073 | 10.05501 | 0 ft | 492 kts | 101° |
| 2026-04-20 12:49 | 41.43448 | 10.09987 | 0 ft | 492 kts | 101° |
| 2026-04-20 12:49 | 41.42824 | 10.14457 | 0 ft | 492 kts | 100° |
| 2026-04-20 12:49 | 41.42196 | 10.18942 | 0 ft | 492 kts | 101° |
| 2026-04-20 12:50 | 41.41566 | 10.23420 | 0 ft | 492 kts | 101° |
| 2026-04-20 12:50 | 41.40936 | 10.27890 | 0 ft | 492 kts | 101° |
| 2026-04-20 12:50 | 41.40302 | 10.32378 | 0 ft | 492 kts | 101° |
| 2026-04-20 12:50 | 41.39667 | 10.36855 | 0 ft | 492 kts | 101° |
| 2026-04-20 12:51 | 41.39032 | 10.41320 | 0 ft | 492 kts | 101° |
| 2026-04-20 12:51 | 41.38395 | 10.45790 | 0 ft | 492 kts | 101° |
| 2026-04-20 12:51 | 41.37765 | 10.50196 | 0 ft | 492 kts | 101° |
| 2026-04-20 12:51 | 41.37115 | 10.54729 | 0 ft | 492 kts | 101° |
| 2026-04-20 12:52 | 41.36482 | 10.59131 | 0 ft | 492 kts | 101° |
| 2026-04-20 12:52 | 41.35838 | 10.63598 | 0 ft | 492 kts | 101° |
| 2026-04-20 12:52 | 41.35189 | 10.68079 | 0 ft | 492 kts | 101° |
| 2026-04-20 12:52 | 41.34541 | 10.72547 | 0 ft | 492 kts | 101° |
| 2026-04-20 12:53 | 41.33891 | 10.77014 | 0 ft | 492 kts | 101° |
| 2026-04-20 12:53 | 41.33240 | 10.81479 | 0 ft | 492 kts | 101° |
| 2026-04-20 12:53 | 41.32585 | 10.85950 | 0 ft | 492 kts | 101° |
| 2026-04-20 12:53 | 41.31931 | 10.90412 | 0 ft | 492 kts | 101° |
| 2026-04-20 12:54 | 41.31275 | 10.94868 | 0 ft | 492 kts | 101° |
| 2026-04-20 12:54 | 41.30613 | 10.99349 | 0 ft | 492 kts | 101° |
| 2026-04-20 12:54 | 41.29953 | 11.03812 | 0 ft | 492 kts | 101° |
| 2026-04-20 12:54 | 41.29298 | 11.08225 | 0 ft | 492 kts | 101° |
| 2026-04-20 12:55 | 41.28634 | 11.12685 | 0 ft | 492 kts | 101° |
| 2026-04-20 12:55 | 41.27966 | 11.17164 | 0 ft | 492 kts | 101° |
| 2026-04-20 12:55 | 41.27301 | 11.21611 | 0 ft | 492 kts | 101° |
| 2026-04-20 12:55 | 41.26630 | 11.26079 | 0 ft | 492 kts | 101° |
| 2026-04-20 12:56 | 41.26185 | 11.29035 | 0 ft | 492 kts | 101° |
| 2026-04-20 12:56 | 41.25515 | 11.33482 | 0 ft | 492 kts | 101° |
| 2026-04-20 12:56 | 41.24840 | 11.37946 | 0 ft | 492 kts | 101° |
| 2026-04-20 12:56 | 41.24165 | 11.42399 | 0 ft | 492 kts | 101° |
| 2026-04-20 12:57 | 41.23489 | 11.46844 | 0 ft | 492 kts | 101° |
| 2026-04-20 12:57 | 41.22589 | 11.52746 | 0 ft | 492 kts | 101° |
| 2026-04-20 12:57 | 41.21908 | 11.57196 | 0 ft | 492 kts | 101° |
| 2026-04-20 12:57 | 41.21447 | 11.60203 | 0 ft | 492 kts | 102° |
| 2026-04-20 12:58 | 41.20763 | 11.64654 | 0 ft | 492 kts | 102° |
| 2026-04-20 12:58 | 41.20077 | 11.69104 | 0 ft | 492 kts | 101° |
| 2026-04-20 12:58 | 41.19391 | 11.73544 | 0 ft | 492 kts | 101° |
| 2026-04-20 12:58 | 41.18702 | 11.77991 | 0 ft | 492 kts | 102° |
| 2026-04-20 12:59 | 41.18012 | 11.82435 | 0 ft | 492 kts | 102° |
| 2026-04-20 12:59 | 41.17320 | 11.86880 | 0 ft | 492 kts | 102° |
| 2026-04-20 12:59 | 41.16626 | 11.91322 | 0 ft | 492 kts | 102° |
| 2026-04-20 12:59 | 41.15929 | 11.95772 | 0 ft | 492 kts | 102° |
| 2026-04-20 13:00 | 41.15240 | 12.00158 | 0 ft | 492 kts | 102° |
| 2026-04-20 13:00 | 41.14540 | 12.04603 | 0 ft | 492 kts | 102° |
| 2026-04-20 13:00 | 41.13842 | 12.09024 | 0 ft | 492 kts | 102° |
| 2026-04-20 13:00 | 41.13141 | 12.13450 | 0 ft | 492 kts | 102° |
| 2026-04-20 13:01 | 41.12435 | 12.17901 | 0 ft | 492 kts | 102° |
| 2026-04-20 13:01 | 41.11835 | 12.22361 | 0 ft | 491 kts | 94° |
| 2026-04-20 13:01 | 41.12021 | 12.26807 | 0 ft | 491 kts | 78° |
| 2026-04-20 13:01 | 41.13076 | 12.31105 | 0 ft | 491 kts | 67° |
| 2026-04-20 13:02 | 41.14480 | 12.35224 | 0 ft | 491 kts | 64° |
| 2026-04-20 13:02 | 41.15952 | 12.39268 | 0 ft | 491 kts | 64° |
| 2026-04-20 13:02 | 41.17629 | 12.43201 | 0 ft | 491 kts | 53° |
| 2026-04-20 13:02 | 41.20003 | 12.46448 | 0 ft | 490 kts | 38° |
| 2026-04-20 13:03 | 41.22761 | 12.49102 | 0 ft | 490 kts | 34° |
| 2026-04-20 13:03 | 41.25595 | 12.51606 | 0 ft | 490 kts | 33° |
| 2026-04-20 13:03 | 41.28428 | 12.54039 | 0 ft | 491 kts | 32° |
| 2026-04-20 13:03 | 41.31314 | 12.56483 | 0 ft | 491 kts | 32° |
| 2026-04-20 13:04 | 41.34204 | 12.58912 | 0 ft | 491 kts | 32° |
| 2026-04-20 13:04 | 41.37133 | 12.61210 | 0 ft | 490 kts | 24° |
| 2026-04-20 13:04 | 41.40373 | 12.62564 | 0 ft | 489 kts | 10° |
| 2026-04-20 13:04 | 41.43738 | 12.63271 | 0 ft | 489 kts | 7° |
| 2026-04-20 13:05 | 41.46467 | 12.63752 | 0 ft | 490 kts | 7° |
| 2026-04-20 13:05 | 41.49854 | 12.64337 | 0 ft | 490 kts | 7° |
| 2026-04-20 13:05 | 41.53236 | 12.64940 | 0 ft | 490 kts | 7° |
| 2026-04-20 13:05 | 41.56574 | 12.65572 | 0 ft | 490 kts | 8° |
| 2026-04-20 13:06 | 41.59990 | 12.66263 | 0 ft | 490 kts | 8° |
| 2026-04-20 13:06 | 41.63314 | 12.66978 | 0 ft | 490 kts | 9° |
| 2026-04-20 13:06 | 41.66723 | 12.67754 | 0 ft | 490 kts | 9° |
| 2026-04-20 13:06 | 41.70031 | 12.68543 | 0 ft | 490 kts | 10° |
| 2026-04-20 13:07 | 41.73384 | 12.69374 | 0 ft | 490 kts | 10° |
| 2026-04-20 13:07 | 41.76737 | 12.70234 | 0 ft | 490 kts | 11° |
| 2026-04-20 13:07 | 41.80085 | 12.71117 | 0 ft | 490 kts | 11° |
| 2026-04-20 13:07 | 41.83430 | 12.72021 | 0 ft | 490 kts | 11° |
| 2026-04-20 13:08 | 41.86766 | 12.72942 | 0 ft | 490 kts | 11° |
| 2026-04-20 13:08 | 41.90108 | 12.73880 | 0 ft | 490 kts | 12° |
| 2026-04-20 13:08 | 41.93454 | 12.74834 | 0 ft | 490 kts | 12° |
| 2026-04-20 13:08 | 41.96784 | 12.75796 | 0 ft | 490 kts | 12° |
| 2026-04-20 13:09 | 42.00121 | 12.76770 | 0 ft | 490 kts | 12° |
| 2026-04-20 13:09 | 42.03460 | 12.77755 | 0 ft | 490 kts | 12° |
| 2026-04-20 13:09 | 42.06786 | 12.78744 | 0 ft | 490 kts | 12° |
| 2026-04-20 13:09 | 42.10125 | 12.79744 | 0 ft | 490 kts | 12° |
| 2026-04-20 13:10 | 42.13461 | 12.80750 | 0 ft | 490 kts | 12° |
| 2026-04-20 13:10 | 42.16755 | 12.81750 | 0 ft | 490 kts | 12° |
| 2026-04-20 13:10 | 42.20088 | 12.82765 | 0 ft | 490 kts | 12° |
| 2026-04-20 13:10 | 42.23409 | 12.83782 | 0 ft | 490 kts | 13° |
| 2026-04-20 13:11 | 42.26737 | 12.84805 | 0 ft | 490 kts | 12° |
| 2026-04-20 13:11 | 42.30063 | 12.85830 | 0 ft | 490 kts | 12° |
| 2026-04-20 13:11 | 42.33393 | 12.86861 | 0 ft | 490 kts | 13° |
| 2026-04-20 13:11 | 42.36719 | 12.87892 | 0 ft | 490 kts | 13° |
| 2026-04-20 13:12 | 42.40044 | 12.88926 | 0 ft | 490 kts | 13° |
| 2026-04-20 13:12 | 42.43251 | 12.89927 | 0 ft | 490 kts | 13° |
| 2026-04-20 13:12 | 42.46591 | 12.90971 | 0 ft | 490 kts | 13° |
| 2026-04-20 13:12 | 42.49909 | 12.92011 | 0 ft | 490 kts | 13° |
| 2026-04-20 13:13 | 42.53236 | 12.93055 | 0 ft | 490 kts | 13° |
| 2026-04-20 13:13 | 42.56563 | 12.94100 | 0 ft | 490 kts | 13° |
| 2026-04-20 13:13 | 42.59845 | 12.95132 | 0 ft | 490 kts | 13° |
| 2026-04-20 13:13 | 42.63161 | 12.96178 | 0 ft | 490 kts | 13° |
| 2026-04-20 13:14 | 42.66526 | 12.97240 | 0 ft | 490 kts | 13° |
| 2026-04-20 13:14 | 42.69812 | 12.98279 | 0 ft | 490 kts | 13° |
| 2026-04-20 13:14 | 42.73135 | 12.99332 | 0 ft | 490 kts | 13° |
| 2026-04-20 13:14 | 42.76460 | 13.00386 | 0 ft | 490 kts | 13° |
| 2026-04-20 13:15 | 42.79785 | 13.01441 | 0 ft | 490 kts | 13° |
| 2026-04-20 13:15 | 42.83105 | 13.02498 | 0 ft | 490 kts | 13° |
| 2026-04-20 13:15 | 42.86429 | 13.03556 | 0 ft | 490 kts | 13° |
| 2026-04-20 13:15 | 42.89756 | 13.04617 | 0 ft | 490 kts | 13° |
| 2026-04-20 13:16 | 42.93072 | 13.05675 | 0 ft | 490 kts | 13° |
| 2026-04-20 13:16 | 42.96399 | 13.06738 | 0 ft | 490 kts | 13° |
| 2026-04-20 13:16 | 42.99729 | 13.07802 | 0 ft | 490 kts | 13° |
| 2026-04-20 13:16 | 43.03049 | 13.08865 | 0 ft | 490 kts | 13° |
| 2026-04-20 13:17 | 43.06371 | 13.09931 | 0 ft | 490 kts | 13° |
| 2026-04-20 13:17 | 43.09701 | 13.10999 | 0 ft | 490 kts | 13° |
| 2026-04-20 13:17 | 43.13016 | 13.12065 | 0 ft | 490 kts | 13° |
| 2026-04-20 13:17 | 43.16340 | 13.13134 | 0 ft | 490 kts | 13° |
| 2026-04-20 13:18 | 43.19626 | 13.14192 | 0 ft | 490 kts | 13° |
| 2026-04-20 13:18 | 43.22944 | 13.15262 | 0 ft | 490 kts | 13° |
| 2026-04-20 13:18 | 43.26264 | 13.16334 | 0 ft | 490 kts | 13° |
| 2026-04-20 13:18 | 43.29591 | 13.17410 | 0 ft | 490 kts | 13° |
| 2026-04-20 13:19 | 43.32909 | 13.18483 | 0 ft | 490 kts | 13° |
| 2026-04-20 13:19 | 43.36227 | 13.19557 | 0 ft | 490 kts | 13° |
| 2026-04-20 13:19 | 43.39555 | 13.20636 | 0 ft | 490 kts | 13° |
| 2026-04-20 13:19 | 43.42877 | 13.21715 | 0 ft | 490 kts | 13° |
| 2026-04-20 13:20 | 43.46205 | 13.22796 | 0 ft | 490 kts | 13° |
| 2026-04-20 13:20 | 43.49528 | 13.23878 | 0 ft | 490 kts | 13° |
| 2026-04-20 13:20 | 43.52852 | 13.24960 | 0 ft | 490 kts | 13° |
| 2026-04-20 13:20 | 43.56176 | 13.26044 | 0 ft | 490 kts | 13° |
| 2026-04-20 13:21 | 43.59496 | 13.27128 | 0 ft | 490 kts | 13° |
| 2026-04-20 13:21 | 43.62810 | 13.28211 | 0 ft | 490 kts | 13° |
| 2026-04-20 13:21 | 43.66135 | 13.29299 | 0 ft | 490 kts | 13° |
| 2026-04-20 13:21 | 43.69417 | 13.30373 | 0 ft | 490 kts | 13° |
| 2026-04-20 13:22 | 43.72774 | 13.31474 | 0 ft | 490 kts | 13° |
| 2026-04-20 13:22 | 43.76096 | 13.32564 | 0 ft | 490 kts | 13° |
| 2026-04-20 13:22 | 43.79374 | 13.33642 | 0 ft | 490 kts | 13° |
| 2026-04-20 13:22 | 43.82688 | 13.34732 | 0 ft | 490 kts | 13° |
| 2026-04-20 13:23 | 43.86023 | 13.35831 | 0 ft | 490 kts | 13° |
| 2026-04-20 13:23 | 43.89345 | 13.36926 | 0 ft | 490 kts | 13° |
| 2026-04-20 13:23 | 43.92665 | 13.38022 | 0 ft | 490 kts | 13° |
| 2026-04-20 13:23 | 43.95977 | 13.39117 | 0 ft | 490 kts | 13° |
| 2026-04-20 13:24 | 43.99301 | 13.40217 | 0 ft | 490 kts | 13° |
| 2026-04-20 13:24 | 44.02628 | 13.41319 | 0 ft | 490 kts | 13° |
| 2026-04-20 13:24 | 44.05941 | 13.42418 | 0 ft | 490 kts | 13° |
| 2026-04-20 13:24 | 44.09256 | 13.43518 | 0 ft | 490 kts | 13° |
| 2026-04-20 13:25 | 44.12539 | 13.44610 | 0 ft | 490 kts | 13° |
| 2026-04-20 13:25 | 44.15867 | 13.45717 | 0 ft | 490 kts | 13° |
| 2026-04-20 13:25 | 44.19179 | 13.46820 | 0 ft | 490 kts | 13° |
| 2026-04-20 13:25 | 44.22506 | 13.47930 | 0 ft | 490 kts | 13° |
| 2026-04-20 13:26 | 44.25829 | 13.49039 | 0 ft | 490 kts | 13° |
| 2026-04-20 13:26 | 44.29151 | 13.50150 | 0 ft | 490 kts | 13° |
| 2026-04-20 13:26 | 44.32468 | 13.51260 | 0 ft | 490 kts | 13° |
| 2026-04-20 13:26 | 44.35795 | 13.52375 | 0 ft | 490 kts | 13° |
| 2026-04-20 13:27 | 44.39112 | 13.53488 | 0 ft | 490 kts | 13° |
| 2026-04-20 13:27 | 44.42424 | 13.54600 | 0 ft | 490 kts | 13° |
| 2026-04-20 13:27 | 44.45751 | 13.55719 | 0 ft | 490 kts | 13° |
| 2026-04-20 13:27 | 44.49072 | 13.56837 | 0 ft | 490 kts | 13° |
| 2026-04-20 13:28 | 44.52380 | 13.57952 | 0 ft | 490 kts | 13° |
| 2026-04-20 13:28 | 44.55699 | 13.59072 | 0 ft | 490 kts | 13° |
| 2026-04-20 13:28 | 44.58983 | 13.60181 | 0 ft | 490 kts | 13° |
| 2026-04-20 13:28 | 44.62303 | 13.61304 | 0 ft | 490 kts | 13° |
| 2026-04-20 13:29 | 44.65616 | 13.62426 | 0 ft | 490 kts | 13° |
| 2026-04-20 13:29 | 44.68945 | 13.63554 | 0 ft | 490 kts | 13° |
| 2026-04-20 13:29 | 44.72258 | 13.64679 | 0 ft | 490 kts | 13° |
| 2026-04-20 13:29 | 44.75582 | 13.65808 | 0 ft | 490 kts | 13° |
| 2026-04-20 13:30 | 44.78898 | 13.66936 | 0 ft | 490 kts | 13° |
| 2026-04-20 13:30 | 44.82216 | 13.68066 | 0 ft | 490 kts | 13° |
| 2026-04-20 13:30 | 44.85496 | 13.69185 | 0 ft | 490 kts | 13° |
| 2026-04-20 13:30 | 44.88807 | 13.70315 | 0 ft | 490 kts | 13° |
| 2026-04-20 13:31 | 44.92127 | 13.71450 | 0 ft | 490 kts | 13° |
| 2026-04-20 13:31 | 44.95447 | 13.72586 | 0 ft | 490 kts | 13° |
| 2026-04-20 13:31 | 44.98758 | 13.73720 | 0 ft | 490 kts | 13° |
| 2026-04-20 13:31 | 45.02081 | 13.74860 | 0 ft | 490 kts | 13° |
| 2026-04-20 13:32 | 45.05391 | 13.75997 | 0 ft | 490 kts | 13° |
| 2026-04-20 13:32 | 45.08716 | 13.77140 | 0 ft | 490 kts | 13° |
| 2026-04-20 13:32 | 45.12033 | 13.78282 | 0 ft | 490 kts | 13° |
| 2026-04-20 13:32 | 45.15353 | 13.79426 | 0 ft | 490 kts | 13° |
| 2026-04-20 13:33 | 45.18637 | 13.80559 | 0 ft | 490 kts | 13° |
| 2026-04-20 13:33 | 45.21949 | 13.81703 | 0 ft | 490 kts | 13° |
| 2026-04-20 13:33 | 45.25265 | 13.82851 | 0 ft | 490 kts | 13° |
| 2026-04-20 13:33 | 45.28579 | 13.83998 | 0 ft | 490 kts | 13° |
| 2026-04-20 13:34 | 45.31904 | 13.85151 | 0 ft | 490 kts | 13° |
| 2026-04-20 13:34 | 45.35217 | 13.86301 | 0 ft | 490 kts | 13° |
| 2026-04-20 13:34 | 45.38524 | 13.87451 | 0 ft | 490 kts | 13° |
| 2026-04-20 13:34 | 45.41848 | 13.88607 | 0 ft | 490 kts | 13° |
| 2026-04-20 13:35 | 45.45156 | 13.89759 | 0 ft | 490 kts | 13° |
| 2026-04-20 13:35 | 45.48470 | 13.90915 | 0 ft | 490 kts | 13° |
| 2026-04-20 13:35 | 45.51790 | 13.92075 | 0 ft | 490 kts | 13° |
| 2026-04-20 13:35 | 45.55099 | 13.93232 | 0 ft | 490 kts | 13° |
| 2026-04-20 13:36 | 45.58410 | 13.94391 | 0 ft | 490 kts | 13° |
| 2026-04-20 13:36 | 45.61728 | 13.95554 | 0 ft | 490 kts | 13° |
| 2026-04-20 13:36 | 45.65043 | 13.96717 | 0 ft | 490 kts | 13° |
| 2026-04-20 13:36 | 45.68322 | 13.97869 | 0 ft | 490 kts | 13° |
| 2026-04-20 13:37 | 45.71638 | 13.99036 | 0 ft | 490 kts | 13° |
| 2026-04-20 13:37 | 45.74951 | 14.00203 | 0 ft | 490 kts | 13° |
| 2026-04-20 13:37 | 45.78286 | 14.01379 | 0 ft | 490 kts | 13° |
| 2026-04-20 13:37 | 45.81595 | 14.02548 | 0 ft | 490 kts | 13° |
| 2026-04-20 13:38 | 45.84917 | 14.03722 | 0 ft | 490 kts | 13° |
| 2026-04-20 13:38 | 45.88142 | 14.04863 | 0 ft | 490 kts | 13° |
| 2026-04-20 13:38 | 45.91449 | 14.06035 | 0 ft | 490 kts | 13° |
| 2026-04-20 13:38 | 45.94768 | 14.07212 | 0 ft | 490 kts | 13° |
| 2026-04-20 13:39 | 45.98090 | 14.08392 | 0 ft | 490 kts | 13° |
| 2026-04-20 13:39 | 46.01400 | 14.09570 | 0 ft | 490 kts | 13° |
| 2026-04-20 13:39 | 46.04714 | 14.10750 | 0 ft | 490 kts | 14° |
| 2026-04-20 13:39 | 46.08023 | 14.11930 | 0 ft | 490 kts | 14° |
| 2026-04-20 13:40 | 46.11334 | 14.13112 | 0 ft | 490 kts | 13° |
| 2026-04-20 13:40 | 46.14644 | 14.14296 | 0 ft | 490 kts | 13° |
| 2026-04-20 13:40 | 46.17963 | 14.15484 | 0 ft | 490 kts | 13° |
| 2026-04-20 13:40 | 46.21245 | 14.16659 | 0 ft | 490 kts | 14° |
| 2026-04-20 13:41 | 46.24565 | 14.17850 | 0 ft | 490 kts | 14° |
| 2026-04-20 13:41 | 46.27882 | 14.19042 | 0 ft | 490 kts | 14° |
| 2026-04-20 13:41 | 46.31175 | 14.20227 | 0 ft | 490 kts | 14° |
| 2026-04-20 13:41 | 46.34311 | 14.21357 | 0 ft | 490 kts | 14° |
| 2026-04-20 13:42 | 46.37615 | 14.22548 | 0 ft | 490 kts | 14° |
| 2026-04-20 13:42 | 46.43983 | 14.25905 | 0 ft | 490 kts | 34° |
| 2026-04-20 13:42 | 46.46625 | 14.29029 | 0 ft | 490 kts | 43° |
| 2026-04-20 13:43 | 46.48271 | 14.31282 | 0 ft | 491 kts | 44° |
| 2026-04-20 13:43 | 46.50712 | 14.34759 | 0 ft | 491 kts | 45° |
| 2026-04-20 13:43 | 46.53104 | 14.38242 | 0 ft | 491 kts | 45° |
| 2026-04-20 13:43 | 46.55454 | 14.41708 | 0 ft | 491 kts | 45° |
| 2026-04-20 13:44 | 46.57848 | 14.45258 | 0 ft | 491 kts | 45° |
| 2026-04-20 13:44 | 46.60227 | 14.48801 | 0 ft | 491 kts | 45° |
| 2026-04-20 13:44 | 46.62621 | 14.52372 | 0 ft | 491 kts | 45° |
| 2026-04-20 13:44 | 46.65000 | 14.55925 | 0 ft | 491 kts | 45° |
| 2026-04-20 13:45 | 46.67381 | 14.59485 | 0 ft | 491 kts | 45° |
| 2026-04-20 13:45 | 46.69775 | 14.63067 | 0 ft | 491 kts | 45° |
| 2026-04-20 13:45 | 46.72160 | 14.66640 | 0 ft | 494 kts | 46° |
| 2026-04-20 13:45 | 46.74554 | 14.70228 | 0 ft | 494 kts | 46° |
| 2026-04-20 13:46 | 46.76942 | 14.73810 | 0 ft | 489 kts | 45° |
| 2026-04-20 13:46 | 46.79262 | 14.77292 | 0 ft | 481 kts | 45° |
| 2026-04-20 13:46 | 46.81566 | 14.80755 | 0 ft | 468 kts | 45° |
| 2026-04-20 13:46 | 46.83810 | 14.84129 | 0 ft | 458 kts | 45° |
| 2026-04-20 13:47 | 46.85979 | 14.87392 | 0 ft | 450 kts | 46° |
| 2026-04-20 13:47 | 46.88129 | 14.90659 | 0 ft | 442 kts | 46° |
| 2026-04-20 13:47 | 46.90137 | 14.93756 | 0 ft | 435 kts | 46° |
| 2026-04-20 13:47 | 46.92197 | 14.96958 | 0 ft | 429 kts | 46° |
| 2026-04-20 13:48 | 46.94225 | 15.00121 | 0 ft | 423 kts | 46° |
| 2026-04-20 13:48 | 46.96229 | 15.03254 | 0 ft | 418 kts | 46° |
| 2026-04-20 13:48 | 46.98146 | 15.06254 | 0 ft | 413 kts | 46° |
| 2026-04-20 13:48 | 47.00013 | 15.09179 | 0 ft | 409 kts | 47° |
| 2026-04-20 13:49 | 47.01914 | 15.12159 | 0 ft | 405 kts | 46° |
| 2026-04-20 13:49 | 47.03825 | 15.15158 | 0 ft | 401 kts | 47° |
| 2026-04-20 13:49 | 47.05712 | 15.18119 | 0 ft | 398 kts | 47° |
| 2026-04-20 13:49 | 47.07607 | 15.21098 | 0 ft | 395 kts | 46° |
| 2026-04-20 13:50 | 47.09472 | 15.24029 | 0 ft | 392 kts | 47° |
| 2026-04-20 13:50 | 47.11234 | 15.26802 | 0 ft | 390 kts | 47° |
| 2026-04-20 13:50 | 47.13082 | 15.29710 | 0 ft | 388 kts | 47° |
| 2026-04-20 13:50 | 47.14913 | 15.32594 | 0 ft | 385 kts | 46° |
| 2026-04-20 13:51 | 47.16735 | 15.35465 | 0 ft | 383 kts | 47° |
| 2026-04-20 13:51 | 47.18547 | 15.38323 | 0 ft | 381 kts | 47° |
| 2026-04-20 13:51 | 47.20353 | 15.41171 | 0 ft | 379 kts | 47° |
| 2026-04-20 13:51 | 47.22150 | 15.44007 | 0 ft | 378 kts | 47° |
| 2026-04-20 13:52 | 47.23941 | 15.46837 | 0 ft | 376 kts | 47° |
| 2026-04-20 13:52 | 47.25715 | 15.49643 | 0 ft | 374 kts | 47° |
| 2026-04-20 13:52 | 47.27485 | 15.52442 | 0 ft | 373 kts | 47° |
| 2026-04-20 13:52 | 47.29246 | 15.55231 | 0 ft | 371 kts | 47° |
| 2026-04-20 13:53 | 47.31002 | 15.58011 | 0 ft | 369 kts | 47° |
| 2026-04-20 13:53 | 47.32725 | 15.60742 | 0 ft | 367 kts | 47° |
| 2026-04-20 13:53 | 47.34473 | 15.63513 | 0 ft | 365 kts | 47° |
| 2026-04-20 13:53 | 47.36175 | 15.66213 | 0 ft | 363 kts | 47° |
| 2026-04-20 13:54 | 47.37896 | 15.68945 | 0 ft | 362 kts | 47° |
| 2026-04-20 13:54 | 47.39604 | 15.71658 | 0 ft | 360 kts | 47° |
| 2026-04-20 13:54 | 47.41303 | 15.74357 | 0 ft | 358 kts | 47° |
| 2026-04-20 13:54 | 47.43001 | 15.77055 | 0 ft | 356 kts | 46° |
| 2026-04-20 13:55 | 47.44766 | 15.79603 | 0 ft | 354 kts | 43° |
| 2026-04-20 13:55 | 47.46549 | 15.82094 | 0 ft | 352 kts | 43° |
| 2026-04-20 13:55 | 47.48309 | 15.84544 | 0 ft | 350 kts | 43° |
| 2026-04-20 13:55 | 47.50103 | 15.87036 | 0 ft | 349 kts | 43° |
| 2026-04-20 13:56 | 47.51865 | 15.89482 | 0 ft | 347 kts | 43° |
| 2026-04-20 13:56 | 47.53622 | 15.91923 | 0 ft | 345 kts | 43° |
| 2026-04-20 13:56 | 47.55373 | 15.94356 | 0 ft | 344 kts | 43° |
| 2026-04-20 13:56 | 47.57088 | 15.96739 | 0 ft | 342 kts | 43° |
| 2026-04-20 13:57 | 47.58821 | 15.99150 | 0 ft | 340 kts | 43° |
| 2026-04-20 13:57 | 47.60491 | 16.01658 | 0 ft | 338 kts | 46° |
| 2026-04-20 13:57 | 47.62059 | 16.04166 | 0 ft | 332 kts | 47° |
| 2026-04-20 13:57 | 47.63585 | 16.06657 | 0 ft | 320 kts | 47° |
| 2026-04-20 13:58 | 47.65044 | 16.09061 | 0 ft | 307 kts | 48° |
| 2026-04-20 13:58 | 47.66438 | 16.11370 | 0 ft | 293 kts | 48° |
| 2026-04-20 13:58 | 47.67770 | 16.13581 | 0 ft | 280 kts | 48° |
| 2026-04-20 13:58 | 47.69058 | 16.15722 | 0 ft | 278 kts | 48° |
| 2026-04-20 13:59 | 47.70352 | 16.17876 | 0 ft | 283 kts | 48° |
| 2026-04-20 13:59 | 47.71664 | 16.20061 | 0 ft | 281 kts | 48° |
| 2026-04-20 13:59 | 47.72960 | 16.22219 | 0 ft | 277 kts | 48° |
| 2026-04-20 13:59 | 47.74181 | 16.24255 | 0 ft | 274 kts | 48° |
| 2026-04-20 14:00 | 47.75411 | 16.26306 | 0 ft | 271 kts | 48° |
| 2026-04-20 14:00 | 47.76642 | 16.28360 | 0 ft | 269 kts | 48° |
| 2026-04-20 14:00 | 47.77879 | 16.30425 | 0 ft | 266 kts | 48° |
| 2026-04-20 14:00 | 47.79107 | 16.32477 | 0 ft | 265 kts | 48° |
| 2026-04-20 14:01 | 47.80326 | 16.34516 | 0 ft | 260 kts | 48° |
| 2026-04-20 14:01 | 47.81515 | 16.36505 | 0 ft | 256 kts | 48° |
| 2026-04-20 14:01 | 47.82644 | 16.38394 | 0 ft | 253 kts | 48° |
| 2026-04-20 14:01 | 47.83806 | 16.40338 | 0 ft | 249 kts | 48° |
| 2026-04-20 14:02 | 47.84918 | 16.42202 | 0 ft | 232 kts | 48° |
| 2026-04-20 14:02 | 47.85963 | 16.43958 | 0 ft | 221 kts | 48° |
| 2026-04-20 14:02 | 47.86938 | 16.45594 | 0 ft | 215 kts | 48° |
| 2026-04-20 14:02 | 47.87585 | 16.46681 | 0 ft | 214 kts | 48° |
| 2026-04-20 14:03 | 47.88559 | 16.48319 | 0 ft | 208 kts | 48° |
| 2026-04-20 14:03 | 47.89491 | 16.49885 | 0 ft | 197 kts | 48° |
| 2026-04-20 14:03 | 47.90381 | 16.51384 | 0 ft | 192 kts | 48° |
| 2026-04-20 14:03 | 47.91262 | 16.52867 | 0 ft | 190 kts | 48° |
| 2026-04-20 14:04 | 47.92133 | 16.54337 | 0 ft | 186 kts | 48° |
| 2026-04-20 14:04 | 47.92985 | 16.55773 | 0 ft | 182 kts | 48° |
| 2026-04-20 14:04 | 47.93784 | 16.57122 | 0 ft | 171 kts | 48° |
| 2026-04-20 14:04 | 47.94536 | 16.58391 | 0 ft | 162 kts | 48° |
| 2026-04-20 14:05 | 47.95267 | 16.59628 | 0 ft | 155 kts | 48° |
| 2026-04-20 14:05 | 47.95951 | 16.60789 | 0 ft | 142 kts | 48° |
| 2026-04-20 14:05 | 47.96602 | 16.61893 | 0 ft | 145 kts | 48° |
| 2026-04-20 14:05 | 47.97265 | 16.63018 | 0 ft | 144 kts | 48° |
| 2026-04-20 14:06 | 47.97940 | 16.64126 | 0 ft | 144 kts | 40° |
| 2026-04-20 14:06 | 47.98860 | 16.64549 | 0 ft | 144 kts | 346° |
| 2026-04-20 14:06 | 47.99704 | 16.63795 | 0 ft | 144 kts | 320° |
| 2026-04-20 14:06 | 48.00492 | 16.62865 | 0 ft | 143 kts | 323° |
| 2026-04-20 14:07 | 48.01364 | 16.62229 | 0 ft | 142 kts | 345° |
| 2026-04-20 14:07 | 48.02339 | 16.61899 | 0 ft | 145 kts | 347° |
| 2026-04-20 14:07 | 48.03301 | 16.61558 | 0 ft | 138 kts | 344° |
| 2026-04-20 14:07 | 48.04194 | 16.61153 | 0 ft | 135 kts | 340° |
| 2026-04-20 14:08 | 48.05107 | 16.60684 | 0 ft | 139 kts | 342° |
| 2026-04-20 14:08 | 48.06016 | 16.60323 | 0 ft | 134 kts | 344° |
| 2026-04-20 14:08 | 48.06914 | 16.59956 | 0 ft | 138 kts | 343° |
| 2026-04-20 14:08 | 48.07822 | 16.59566 | 0 ft | 135 kts | 343° |
| 2026-04-20 14:09 | 48.08728 | 16.59190 | 0 ft | 138 kts | 343° |
| 2026-04-20 14:09 | 48.09539 | 16.58844 | 0 ft | 95 kts | 343° |
| 2026-04-20 14:09 | 48.10108 | 16.58601 | 0 ft | 79 kts | 344° |
| 2026-04-20 14:09 | 48.10606 | 16.58397 | 0 ft | 66 kts | 342° |
| 2026-04-20 14:10 | 48.10859 | 16.58284 | 0 ft | 20 kts | 343° |
| 2026-04-20 14:10 | 48.10979 | 16.58185 | 0 ft | 21 kts | 317° |
| 2026-04-20 14:10 | 48.11069 | 16.58003 | 0 ft | 23 kts | 297° |
| 2026-04-20 14:10 | 48.11139 | 16.57785 | 0 ft | 24 kts | 293° |
| 2026-04-20 14:11 | 48.11213 | 16.57545 | 0 ft | 26 kts | 296° |
| 2026-04-20 14:11 | 48.11318 | 16.57358 | 0 ft | 21 kts | 347° |
| 2026-04-20 14:11 | 48.11438 | 16.57310 | 0 ft | 19 kts | 313° |
| 2026-04-20 14:11 | 48.11508 | 16.57135 | 0 ft | 21 kts | 296° |
| 2026-04-20 14:12 | 48.11574 | 16.56930 | 0 ft | 23 kts | 296° |
| 2026-04-20 14:12 | 48.11633 | 16.56802 | 0 ft | 11 kts | 334° |
| 2026-04-20 14:12 | 48.11697 | 16.56813 | 0 ft | 4 kts | 23° |
| 2026-04-20 14:12 | 48.11699 | 16.56815 | 0 ft | 0 kts | 23° |